首页
METAR-TAF:

METAR-TAF

机场 :

普斯科夫, 俄罗斯

纬度: 57-47-06N, 经度: 028-23-54E, 海拔: 47米

当前天气观测

该预报发布于27分钟前的20:00 UTC
风速4节,风向北转东北,在东转东北之间变化
温度 -2°C
湿度 100%
气压 992 hPa
能見度: 4700
小雪

METAR: ULOO 272000Z AUTO 03002MPS 010V070 4700 -SN M02/M02 Q0992 RMK QFE740

时间: 23:27 (20:27 UTC)

预报

该预报发布于3小时和30分钟前的16:57 UTC
预报有效从27日的 18点(UTC)到 28日的 03点(UTC)
风速6节,风向
能見度: 2100
多云层高于700英尺
阴天层高于1500英尺
小雪
短暂存在
从 27日的 18点(UTC)到 27日的 22点(UTC)
风速10节,风向东北
能見度: 1400
多云层高于600英尺
多云层高于1700英尺, 积雨云.
小阵雪, 轻雾
从 27日的 2200点(UTC)
风速6节,风向东转东北
能見度: 3100
多云层高于800英尺
多云层高于2000英尺
小雪
短暂存在
从 27日的 22点(UTC)到 28日的 03点(UTC)
风速8节,风向北转东北
能見度: 2100
多云层高于600英尺
多云层高于1700英尺, 积雨云.
小阵雪, 雨

TAF: ULOO 271657Z 2718/2803 08003MPS 2100 -SN BKN007 OVC015 TEMPO 2718/2722 05005MPS 1400 -SHSN BR BKN006 BKN017CB FM272200 07003MPS 3100 -SN BKN008 BKN020 TEMPO 2722/2803 03004MPS 2100 -SHSNRA BKN006 BKN017CB

超过4000个机场的气象观测和天气预报(METAR&TAF报告)。

可查询的气象台以黄色和红色小点在地图上表示。

将鼠标移到小点上方,可查看气象台名称。

然后点击查看天气观测和预报。

如需切换地图:点击带黑十字的绿色按钮放大地图;点击带横线的绿色按钮缩小地图;或者点击绿色箭头查看邻近地区的地图。


METAR-TAF: